Impacts TAF Board INFO
FOR SITUATIONAL AWARENESS. NOT TO BE USED FOR FLIGHT PLANNING PURPOSES.
IDs:

KLAS - Las Vegas/McCarran I, NV, US

Issued at 1120 UTC 23 Jun 2018
Updated at 1340 UTC 23 Jun 2018
Potential Impact None Slight Moderate High
Time<<24/02Z 24/03Z 24/04Z 24/05Z 24/06Z 24/07Z 24/08Z 24/09Z 24/10Z 24/11Z 24/12Z 24/13Z 24/14Z>>
Type PRVL PRVL PRVL PRVL PRVL PRVL PRVL PRVL PRVL PRVL PRVL PRVL PRVL
VIS >6 >6 >6 >6 >6 >6 >6 >6 >6 >6 >6 >6 >6
CIG -- -- -- -- -- -- -- -- -- -- -- -- --
Cover SKC SKC SKC SKC SKC SKC SKC SKC SKC SKC SKC SKC SKC
FltCat VFR VFR VFR VFR VFR VFR VFR VFR VFR VFR VFR VFR VFR
WX -- -- -- -- -- -- -- -- -- -- -- -- --
WDir 220 220 220 220 220 220 220 220 220 220 220 350 350
WSpd 15 15 15 15 15 15 8 8 8 8 8 7 7
WGst 25 25 25 25 25 25 -- -- -- -- -- -- --

Raw TAF
KLAS 231120Z 2312/2418 VRB04KT P6SM SKC
  FM231600 05006KT P6SM SKC
  FM232100 22015G25KT P6SM SKC
  FM240800 22008KT P6SM SKC
  FM241300 35007KT P6SM SKC


METAR Board
Radar Display
Forecast Discussion

FOR SITUATIONAL AWARENESS. NOT TO BE USED FOR FLIGHT PLANNING PURPOSES.